Main page
METAR-TAF:

METAR-TAF

Airports :

Falconara Airport

Ancona, Italy

latitude: 43-37N, longitude: 013-22E, elevation: 12 m

Current weather observation

The report was made 38 minutes ago, at 12:50 UTC
Wind 10 kt from the East/Northeast, varying between Northeast and East
Temperature 18°C
Humidity 73%
Pressure 1019 hPa
Visibility 10 km or more
no clouds below 1500 m and no cumulonimbus

METAR: LIPY 211250Z 07010KT 040V100 CAVOK 18/13 Q1019

Time: 15:28 (13:28 UTC)

Forecast

The report was made 2 hours and 28 minutes ago, at 11:00 UTC
Forecast valid from 21 at 12 UTC to 22 at 12 UTC
Wind 12 kt from the East
Visibility 10 km or more
no clouds below 1500 m and no cumulonimbus
Becoming
from 21 at 16 UTC to 21 at 18 UTC
Wind 5 kt from variable directions
Becoming
from 22 at 08 UTC to 22 at 10 UTC
Wind 12 kt from the East/Southeast

TAF: LIPY 211100Z 2112/2212 10012KT CAVOK BECMG 2116/2118 VRB05KT BECMG 2208/2210 12012KT

Weather observations and forecasts of more than 4000 airports (METAR and TAF reports).

The available stations are represented by yellow and red dots on the map.

Hover mouse over dot to see the name of the station.

Then click to see weather observations and forecasts.

To change the map : click on the green buttons with a black cross to zoom in, on the green button with a dash to zoom out, or on the green arrows for adjacent maps.


METAR-TAF: